createdAt,value
2019-06-01T00:00:40.035Z,15.57
2019-06-01T00:03:12.154Z,15.56
2019-06-01T00:05:44.554Z,15.55
2019-06-01T00:08:15.817Z,15.55
2019-06-01T00:10:47.749Z,15.50
2019-06-01T00:13:18.963Z,15.50
2019-06-01T00:15:50.476Z,15.50
2019-06-01T00:18:21.637Z,15.27
2019-06-01T00:20:52.853Z,15.52
2019-06-01T00:23:24.035Z,15.36
2019-06-01T00:25:55.372Z,15.36
2019-06-01T00:28:26.599Z,15.42
2019-06-01T00:30:57.836Z,15.40
2019-06-01T00:33:28.896Z,15.47
2019-06-01T00:36:00.146Z,15.35
2019-06-01T00:38:31.715Z,15.36
2019-06-01T00:41:02.885Z,15.29
2019-06-01T00:43:34.055Z,15.30
2019-06-01T00:46:05.195Z,15.20
2019-06-01T00:48:36.342Z,15.25
2019-06-01T00:51:07.480Z,15.20
2019-06-01T00:53:38.653Z,15.41
2019-06-01T00:56:09.680Z,15.39
2019-06-01T00:58:41.139Z,15.35
2019-06-01T01:01:12.696Z,15.20
2019-06-01T01:03:44.005Z,15.31
2019-06-01T01:06:15.335Z,15.22
2019-06-01T01:08:47.085Z,15.22
2019-06-01T01:11:18.308Z,15.11
2019-06-01T01:13:49.557Z,15.17
2019-06-01T01:16:20.731Z,15.33
2019-06-01T01:18:53.774Z,15.16
2019-06-01T01:21:25.976Z,15.22
2019-06-01T01:23:57.144Z,15.23
2019-06-01T01:26:28.193Z,15.19
2019-06-01T01:28:59.408Z,15.17
2019-06-01T01:31:30.507Z,15.22
2019-06-01T01:34:01.811Z,15.17
2019-06-01T01:36:33.467Z,15.03
2019-06-01T01:39:06.092Z,15.05
2019-06-01T01:41:37.373Z,15.01
2019-06-01T01:44:08.625Z,15.00
2019-06-01T01:46:39.901Z,15.06
2019-06-01T01:49:10.942Z,14.89
2019-06-01T01:51:42.220Z,14.83
2019-06-01T01:54:13.390Z,14.93
2019-06-01T01:56:44.449Z,14.93
2019-06-01T01:59:15.605Z,14.90
2019-06-01T02:01:46.790Z,14.93
2019-06-01T02:04:18.116Z,14.80
2019-06-01T02:06:49.336Z,14.87
2019-06-01T02:09:20.485Z,14.81
2019-06-01T02:11:51.595Z,14.74
2019-06-01T02:14:23.160Z,14.75
2019-06-01T02:16:54.342Z,14.66
2019-06-01T02:19:25.405Z,14.85
2019-06-01T02:21:56.544Z,14.76
2019-06-01T02:24:27.721Z,14.73
2019-06-01T02:26:59.423Z,14.71
2019-06-01T02:29:30.692Z,14.77
2019-06-01T02:32:04.764Z,14.85
2019-06-01T02:34:36.017Z,14.89
2019-06-01T02:37:07.213Z,14.76
2019-06-01T02:39:38.655Z,14.90
2019-06-01T02:42:11.533Z,14.77
2019-06-01T02:44:42.686Z,14.72
2019-06-01T02:47:13.781Z,14.72
2019-06-01T02:49:44.917Z,14.74
2019-06-01T02:52:16.078Z,14.86
2019-06-01T02:54:47.296Z,14.79
2019-06-01T02:57:18.418Z,14.92
2019-06-01T02:59:49.561Z,14.81
2019-06-01T03:02:20.778Z,14.80
2019-06-01T03:04:52.088Z,14.93
2019-06-01T03:07:24.517Z,14.80
2019-06-01T03:09:56.752Z,14.77
2019-06-01T03:12:31.020Z,14.81
2019-06-01T03:15:02.942Z,14.85
2019-06-01T03:17:37.585Z,14.84
2019-06-01T03:20:09.957Z,14.81
2019-06-01T03:22:43.632Z,14.72
2019-06-01T03:25:15.820Z,14.63
2019-06-01T03:27:50.236Z,14.59
2019-06-01T03:30:56.429Z,14.68
2019-06-01T03:33:27.673Z,14.79
2019-06-01T03:35:59.006Z,14.57
2019-06-01T03:38:30.606Z,14.58
2019-06-01T03:41:02.111Z,14.81
2019-06-01T03:43:33.385Z,14.69
2019-06-01T03:46:04.691Z,14.81
2019-06-01T03:48:36.023Z,14.83
2019-06-01T03:51:08.269Z,14.81
2019-06-01T03:53:39.657Z,14.67
2019-06-01T03:56:11.112Z,14.87
2019-06-01T03:58:42.277Z,14.70
2019-06-01T04:01:13.438Z,14.92
2019-06-01T04:03:44.625Z,14.74
2019-06-01T04:06:15.753Z,14.83
2019-06-01T04:08:46.805Z,14.70
2019-06-01T04:11:18.052Z,14.73
2019-06-01T04:13:49.221Z,14.81
2019-06-01T04:16:20.304Z,14.73
2019-06-01T04:18:51.449Z,14.73
2019-06-01T04:21:22.571Z,14.89
2019-06-01T04:23:53.772Z,14.98
2019-06-01T04:26:25.941Z,15.05
2019-06-01T04:28:57.103Z,15.22
2019-06-01T04:31:28.478Z,15.22
2019-06-01T04:33:59.531Z,15.37
2019-06-01T04:36:30.743Z,15.51
2019-06-01T04:39:03.219Z,15.54
2019-06-01T04:41:34.620Z,15.70
2019-06-01T04:44:06.163Z,15.58
2019-06-01T04:46:37.365Z,15.71
2019-06-01T04:49:08.606Z,16.09
2019-06-01T04:51:39.797Z,16.41
2019-06-01T04:54:11.701Z,16.25
2019-06-01T04:56:44.043Z,16.43
2019-06-01T04:59:15.488Z,16.57
2019-06-01T05:01:46.866Z,16.66
2019-06-01T05:04:18.097Z,17.20
2019-06-01T05:06:49.310Z,16.95
2019-06-01T05:09:20.582Z,16.91
2019-06-01T05:11:51.774Z,16.80
2019-06-01T05:14:22.800Z,16.69
2019-06-01T05:16:54.063Z,16.52
2019-06-01T05:19:25.173Z,16.70
2019-06-01T05:21:56.316Z,16.69
2019-06-01T05:24:27.520Z,16.73
2019-06-01T05:26:58.699Z,16.69
2019-06-01T05:29:29.826Z,16.78
2019-06-01T05:32:01.071Z,16.98
2019-06-01T05:34:32.447Z,17.58
2019-06-01T05:37:03.862Z,17.90
2019-06-01T05:39:35.055Z,17.84
2019-06-01T05:42:06.268Z,17.99
2019-06-01T05:44:37.381Z,18.03
2019-06-01T05:47:08.513Z,17.63
2019-06-01T05:49:39.546Z,17.50
2019-06-01T05:52:10.713Z,17.54
2019-06-01T05:54:42.073Z,17.71
2019-06-01T05:57:13.191Z,17.66
2019-06-01T05:59:44.469Z,17.65
2019-06-01T06:02:15.674Z,17.73
2019-06-01T06:04:46.812Z,17.70
2019-06-01T06:07:18.999Z,17.74
2019-06-01T06:09:50.316Z,17.63
2019-06-01T06:12:21.643Z,17.90
2019-06-01T06:14:52.776Z,18.02
2019-06-01T06:17:24.529Z,18.43
2019-06-01T06:19:55.720Z,18.63
2019-06-01T06:22:26.776Z,19.39
2019-06-01T06:24:57.961Z,22.30
2019-06-01T06:27:29.139Z,24.73
2019-06-01T06:30:00.305Z,26.37
2019-06-01T06:32:31.424Z,27.09
2019-06-01T06:35:02.467Z,27.67
2019-06-01T06:37:34.006Z,27.49
2019-06-01T06:40:05.926Z,26.75
2019-06-01T06:42:37.152Z,25.67
2019-06-01T06:45:08.554Z,25.44
2019-06-01T06:47:39.879Z,25.41
2019-06-01T06:50:17.498Z,26.50
2019-06-01T06:52:49.271Z,26.41
2019-06-01T06:55:22.034Z,27.10
2019-06-01T06:57:53.379Z,27.85
2019-06-01T07:00:24.923Z,29.10
2019-06-01T07:02:56.249Z,30.24
2019-06-01T07:05:30.732Z,30.86
2019-06-01T07:08:00.393Z,30.76
2019-06-01T07:10:31.529Z,29.95
2019-06-01T07:13:02.685Z,28.22
2019-06-01T07:15:33.834Z,27.76
2019-06-01T07:18:05.065Z,27.77
2019-06-01T07:20:36.347Z,27.91
2019-06-01T07:23:07.549Z,27.80
2019-06-01T07:25:38.695Z,27.98
2019-06-01T07:28:09.812Z,27.96
2019-06-01T07:30:50.336Z,28.43
2019-06-01T07:33:13.945Z,28.13
2019-06-01T07:35:45.245Z,28.36
2019-06-01T07:38:16.448Z,28.16
2019-06-01T07:40:47.681Z,27.30
2019-06-01T07:43:18.862Z,26.45
2019-06-01T07:45:50.027Z,25.99
2019-06-01T07:48:21.215Z,26.06
2019-06-01T07:50:52.276Z,25.71
2019-06-01T07:53:24.050Z,25.36
2019-06-01T07:55:55.651Z,25.05
2019-06-01T07:58:26.891Z,25.08
2019-06-01T08:00:57.938Z,24.83
2019-06-01T08:03:32.857Z,24.38
2019-06-01T08:06:01.871Z,24.27
2019-06-01T08:08:32.999Z,24.54
2019-06-01T08:11:04.331Z,24.49
2019-06-01T08:13:35.989Z,24.65
2019-06-01T08:16:07.172Z,24.13
2019-06-01T08:18:38.342Z,24.60
2019-06-01T08:21:09.472Z,24.32
2019-06-01T08:23:40.802Z,24.96
2019-06-01T08:26:11.898Z,24.99
2019-06-01T08:28:43.082Z,24.66
2019-06-01T08:31:14.278Z,24.60
2019-06-01T08:33:45.496Z,24.36
2019-06-01T08:36:16.650Z,24.45
2019-06-01T08:38:47.810Z,24.27
2019-06-01T08:41:18.963Z,24.11
2019-06-01T08:43:50.213Z,23.99
2019-06-01T08:46:21.520Z,23.95
2019-06-01T08:48:53.002Z,24.00
2019-06-01T08:51:24.304Z,24.19
2019-06-01T08:53:55.575Z,24.32
2019-06-01T08:56:28.239Z,24.45
2019-06-01T08:59:03.031Z,24.38
2019-06-01T09:01:34.939Z,24.39
2019-06-01T09:04:06.253Z,24.46
2019-06-01T09:06:37.453Z,24.25
2019-06-01T09:09:11.728Z,24.20
2019-06-01T09:11:42.162Z,23.88
2019-06-01T09:14:13.294Z,24.35
2019-06-01T09:16:44.471Z,24.16
2019-06-01T09:19:15.707Z,23.97
2019-06-01T09:21:46.873Z,24.06
2019-06-01T09:24:18.113Z,23.68
2019-06-01T09:26:49.269Z,23.84
2019-06-01T09:29:20.520Z,23.95
2019-06-01T09:31:51.729Z,23.91
2019-06-01T09:34:22.932Z,24.14
2019-06-01T09:36:55.604Z,24.52
2019-06-01T09:39:27.037Z,24.25
2019-06-01T09:41:58.251Z,23.88
2019-06-01T09:44:31.965Z,24.18
2019-06-01T09:47:03.120Z,24.35
2019-06-01T09:49:37.895Z,24.38
2019-06-01T09:52:11.845Z,24.58
2019-06-01T09:54:40.209Z,24.59
2019-06-01T09:57:11.458Z,24.43
2019-06-01T09:59:42.584Z,23.96
2019-06-01T10:02:13.778Z,24.02
2019-06-01T10:04:44.944Z,24.43
2019-06-01T10:07:16.076Z,24.19
2019-06-01T10:09:47.295Z,24.39
2019-06-01T10:12:18.491Z,24.42
2019-06-01T10:14:49.611Z,24.30
2019-06-01T10:17:20.756Z,24.38
2019-06-01T10:19:51.828Z,24.42
2019-06-01T10:22:22.877Z,24.42
2019-06-01T10:24:55.083Z,24.22
2019-06-01T10:27:26.239Z,23.87
2019-06-01T10:29:57.393Z,23.84
2019-06-01T10:32:28.470Z,24.08
2019-06-01T10:34:59.628Z,24.01
2019-06-01T10:37:31.320Z,23.99
2019-06-01T10:40:02.958Z,24.04
2019-06-01T10:42:35.716Z,24.18
2019-06-01T10:45:07.796Z,24.08
2019-06-01T10:47:40.110Z,23.97
2019-06-01T10:50:12.735Z,24.43
2019-06-01T10:52:43.909Z,23.99
2019-06-01T10:55:16.518Z,24.11
2019-06-01T10:57:47.618Z,24.32
2019-06-01T11:00:37.030Z,24.43
2019-06-01T11:02:52.858Z,24.33
2019-06-01T11:05:23.966Z,24.31
2019-06-01T11:07:55.127Z,24.20
2019-06-01T11:10:26.180Z,24.20
2019-06-01T11:12:57.257Z,24.12
2019-06-01T11:15:28.388Z,24.00
2019-06-01T11:17:59.427Z,23.77
2019-06-01T11:20:30.600Z,23.99
2019-06-01T11:23:01.712Z,24.27
2019-06-01T11:25:35.575Z,24.37
2019-06-01T11:28:06.900Z,23.80
2019-06-01T11:30:38.082Z,23.95
2019-06-01T11:33:09.283Z,24.09
2019-06-01T11:35:41.427Z,24.44
2019-06-01T11:38:13.793Z,24.65
2019-06-01T11:40:45.318Z,24.48
2019-06-01T11:43:16.420Z,24.47
2019-06-01T11:45:47.561Z,24.29
2019-06-01T11:48:18.681Z,24.51
2019-06-01T11:50:49.875Z,24.55
2019-06-01T11:53:21.130Z,24.56
2019-06-01T11:55:52.316Z,24.41
2019-06-01T11:58:23.491Z,24.60
2019-06-01T12:00:54.624Z,24.73
2019-06-01T12:03:25.656Z,24.77
2019-06-01T12:05:56.823Z,25.15
2019-06-01T12:08:28.133Z,24.94
2019-06-01T12:10:59.281Z,24.67
2019-06-01T12:13:30.531Z,25.26
2019-06-01T12:16:01.688Z,24.84
2019-06-01T12:18:32.739Z,24.62
2019-06-01T12:21:04.086Z,24.59
2019-06-01T12:23:35.115Z,24.44
2019-06-01T12:26:06.324Z,24.44
2019-06-01T12:28:37.621Z,24.09
2019-06-01T12:31:08.991Z,24.67
2019-06-01T12:33:40.117Z,24.63
2019-06-01T12:36:11.269Z,24.46
2019-06-01T12:38:52.450Z,24.52
2019-06-01T12:41:24.741Z,25.06
2019-06-01T12:44:15.285Z,25.06
2019-06-01T12:46:46.978Z,24.71
2019-06-01T12:49:18.223Z,24.64
2019-06-01T12:51:49.376Z,24.67
2019-06-01T12:54:20.487Z,24.52
2019-06-01T12:56:51.677Z,24.52
2019-06-01T12:59:24.022Z,24.57
2019-06-01T13:01:55.138Z,24.60
2019-06-01T13:04:26.277Z,24.58
2019-06-01T13:06:57.435Z,24.72
2019-06-01T13:09:28.533Z,24.48
2019-06-01T13:11:59.736Z,24.56
2019-06-01T13:14:31.010Z,24.44
2019-06-01T13:17:07.569Z,24.31
2019-06-01T13:19:34.976Z,24.26
2019-06-01T13:22:06.176Z,24.16
2019-06-01T13:24:37.427Z,24.36
2019-06-01T13:27:08.556Z,24.61
2019-06-01T13:29:39.681Z,24.42
2019-06-01T13:32:10.850Z,24.94
2019-06-01T13:34:42.620Z,24.98
2019-06-01T13:37:13.933Z,24.83
2019-06-01T13:39:46.434Z,24.98
2019-06-01T13:42:17.939Z,24.89
2019-06-01T13:44:49.544Z,24.85
2019-06-01T13:47:22.025Z,25.05
2019-06-01T13:49:54.186Z,24.87
2019-06-01T13:52:25.321Z,24.85
2019-06-01T13:54:56.474Z,25.32
2019-06-01T13:57:27.535Z,24.94
2019-06-01T13:59:58.669Z,24.74
2019-06-01T14:02:29.835Z,24.51
2019-06-01T14:05:00.967Z,24.47
2019-06-01T14:07:32.028Z,24.55
2019-06-01T14:10:05.441Z,24.57
2019-06-01T14:12:36.571Z,25.06
2019-06-01T14:15:09.097Z,24.86
2019-06-01T14:17:40.257Z,25.06
2019-06-01T14:20:11.734Z,25.11
2019-06-01T14:22:42.899Z,25.11
2019-06-01T14:25:15.528Z,24.89
2019-06-01T14:27:48.262Z,25.03
2019-06-01T14:30:19.476Z,24.39
2019-06-01T14:32:50.578Z,24.27
2019-06-01T14:35:21.667Z,24.37
2019-06-01T14:37:53.397Z,24.64
2019-06-01T14:40:24.609Z,24.85
2019-06-01T14:42:55.772Z,24.77
2019-06-01T14:45:26.981Z,24.47
2019-06-01T14:47:58.056Z,24.42
2019-06-01T14:50:29.240Z,24.38
2019-06-01T14:53:00.495Z,24.54
2019-06-01T14:55:31.763Z,24.88
2019-06-01T14:58:02.946Z,24.94
2019-06-01T15:00:34.030Z,25.00
2019-06-01T15:03:05.649Z,25.24
2019-06-01T15:05:36.790Z,24.89
2019-06-01T15:08:07.954Z,24.57
2019-06-01T15:10:39.042Z,24.78
2019-06-01T15:13:10.237Z,25.00
2019-06-01T15:15:41.340Z,24.84
2019-06-01T15:18:12.448Z,24.84
2019-06-01T15:20:43.718Z,25.06
2019-06-01T15:23:15.985Z,24.91
2019-06-01T15:25:47.115Z,24.58
2019-06-01T15:28:18.184Z,24.76
2019-06-01T15:30:50.720Z,24.84
2019-06-01T15:33:22.097Z,25.02
2019-06-01T15:35:53.786Z,24.96
2019-06-01T15:38:25.076Z,24.76
2019-06-01T15:40:56.290Z,24.59
2019-06-01T15:43:27.426Z,24.83
2019-06-01T15:45:59.605Z,24.61
2019-06-01T15:48:30.960Z,24.46
2019-06-01T15:51:07.058Z,24.49
2019-06-01T15:53:34.890Z,24.37
2019-06-01T15:56:06.123Z,24.10
2019-06-01T15:58:51.945Z,24.21
2019-06-01T16:01:10.162Z,24.42
2019-06-01T16:03:41.213Z,24.28
2019-06-01T16:06:12.340Z,24.41
2019-06-01T16:08:43.507Z,24.55
2019-06-01T16:11:15.727Z,24.56
2019-06-01T16:13:46.979Z,24.51
2019-06-01T16:16:18.096Z,24.57
2019-06-01T16:18:49.166Z,24.12
2019-06-01T16:21:20.295Z,24.25
2019-06-01T16:23:51.529Z,24.22
2019-06-01T16:26:22.694Z,24.19
2019-06-01T16:28:54.326Z,24.00
2019-06-01T16:31:25.520Z,24.15
2019-06-01T16:33:56.667Z,24.25
2019-06-01T16:36:27.828Z,24.25
2019-06-01T16:39:02.856Z,24.21
2019-06-01T16:41:33.545Z,24.11
2019-06-01T16:44:05.846Z,24.08
2019-06-01T16:46:38.190Z,24.08
2019-06-01T16:49:09.322Z,23.93
2019-06-01T16:52:08.955Z,24.15
2019-06-01T16:54:40.342Z,24.20
2019-06-01T16:57:11.583Z,24.19
2019-06-01T16:59:42.692Z,24.34
2019-06-01T17:02:15.096Z,24.25
2019-06-01T17:04:46.241Z,24.35
2019-06-01T17:07:17.319Z,24.13
2019-06-01T17:09:48.473Z,24.11
2019-06-01T17:12:19.677Z,24.00
2019-06-01T17:14:50.943Z,23.90
2019-06-01T17:17:22.123Z,23.80
2019-06-01T17:19:53.342Z,23.84
2019-06-01T17:22:24.400Z,24.11
2019-06-01T17:24:55.567Z,23.79
2019-06-01T17:27:26.672Z,24.04
2019-06-01T17:29:58.110Z,24.04
2019-06-01T17:32:29.479Z,23.76
2019-06-01T17:35:03.057Z,23.83
2019-06-01T17:37:34.622Z,23.72
2019-06-01T17:40:06.430Z,23.89
2019-06-01T17:42:37.766Z,23.87
2019-06-01T17:45:09.650Z,24.10
2019-06-01T17:47:41.098Z,23.73
2019-06-01T17:50:13.269Z,23.55
2019-06-01T17:52:44.680Z,23.64
2019-06-01T17:55:32.131Z,23.72
2019-06-01T17:58:03.694Z,23.77
2019-06-01T18:00:34.911Z,23.54
2019-06-01T18:03:08.010Z,23.59
2019-06-01T18:05:39.324Z,23.64
2019-06-01T18:08:10.610Z,23.49
2019-06-01T18:10:53.476Z,23.43
2019-06-01T18:13:15.092Z,23.41
2019-06-01T18:15:49.862Z,23.40
2019-06-01T18:18:19.241Z,23.42
2019-06-01T18:20:50.475Z,23.22
2019-06-01T18:23:21.720Z,23.26
2019-06-01T18:25:53.005Z,23.29
2019-06-01T18:28:24.406Z,23.21
2019-06-01T18:30:55.637Z,23.17
2019-06-01T18:33:26.945Z,23.04
2019-06-01T18:35:58.180Z,23.03
2019-06-01T18:38:29.410Z,22.97
2019-06-01T18:41:09.507Z,23.05
2019-06-01T18:43:33.362Z,22.89
2019-06-01T18:46:05.695Z,22.82
2019-06-01T18:48:36.951Z,22.70
2019-06-01T18:51:08.321Z,22.62
2019-06-01T18:53:40.487Z,22.63
2019-06-01T18:56:12.292Z,22.57
2019-06-01T18:58:43.637Z,22.43
2019-06-01T19:01:20.006Z,22.45
2019-06-01T19:03:48.140Z,22.39
2019-06-01T19:06:19.286Z,22.27
2019-06-01T19:08:50.373Z,22.22
2019-06-01T19:11:32.854Z,22.14
2019-06-01T19:13:54.442Z,22.07
2019-06-01T19:16:25.702Z,21.88
2019-06-01T19:18:56.849Z,21.92
2019-06-01T19:21:27.971Z,21.83
2019-06-01T19:23:59.659Z,21.73
2019-06-01T19:26:30.741Z,21.60
2019-06-01T19:29:01.837Z,21.72
2019-06-01T19:31:33.170Z,21.62
2019-06-01T19:34:04.322Z,21.54
2019-06-01T19:36:35.896Z,21.36
2019-06-01T19:39:09.215Z,21.39
2019-06-01T19:41:45.112Z,21.44
2019-06-01T19:44:15.688Z,21.35
2019-06-01T19:46:46.914Z,21.30
2019-06-01T19:49:18.981Z,21.21
2019-06-01T19:51:50.232Z,21.06
2019-06-01T19:54:21.554Z,21.02
2019-06-01T19:56:52.694Z,21.04
2019-06-01T19:59:23.804Z,21.00
2019-06-01T20:01:55.005Z,21.03
2019-06-01T20:04:26.224Z,20.99
2019-06-01T20:06:57.378Z,20.99
2019-06-01T20:09:28.455Z,20.86
2019-06-01T20:12:02.206Z,20.90
2019-06-01T20:14:32.627Z,20.78
2019-06-01T20:17:03.830Z,20.67
2019-06-01T20:19:34.879Z,20.66
2019-06-01T20:22:06.147Z,20.65
2019-06-01T20:24:37.183Z,20.61
2019-06-01T20:27:08.330Z,20.56
2019-06-01T20:29:39.566Z,20.46
2019-06-01T20:32:11.650Z,20.33
2019-06-01T20:34:42.778Z,20.43
2019-06-01T20:37:13.979Z,20.35
2019-06-01T20:39:45.336Z,20.39
2019-06-01T20:42:22.292Z,20.43
2019-06-01T20:44:49.341Z,20.27
2019-06-01T20:47:20.988Z,20.22
2019-06-01T20:49:52.304Z,20.10
2019-06-01T20:52:23.454Z,20.11
2019-06-01T20:54:54.579Z,20.00
2019-06-01T20:57:25.779Z,19.99
2019-06-01T20:59:56.944Z,19.98
2019-06-01T21:02:28.258Z,19.98
2019-06-01T21:05:00.072Z,20.09
2019-06-01T21:07:31.148Z,20.08
2019-06-01T21:10:02.303Z,19.98
2019-06-01T21:12:44.818Z,19.92
2019-06-01T21:15:07.096Z,19.84
2019-06-01T21:17:38.266Z,19.73
2019-06-01T21:20:10.736Z,19.87
2019-06-01T21:22:42.263Z,19.68
2019-06-01T21:25:14.796Z,19.78
2019-06-01T21:27:46.071Z,19.66
2019-06-01T21:30:18.768Z,19.63
2019-06-01T21:32:50.202Z,19.62
2019-06-01T21:35:21.468Z,19.62
2019-06-01T21:37:52.634Z,19.64
2019-06-01T21:40:23.871Z,19.52
2019-06-01T21:43:06.891Z,19.53
2019-06-01T21:45:28.261Z,19.42
2019-06-01T21:47:59.278Z,19.41
2019-06-01T21:50:30.472Z,19.25
2019-06-01T21:53:01.627Z,19.10
2019-06-01T21:55:32.919Z,19.24
2019-06-01T21:58:04.397Z,19.27
2019-06-01T22:00:38.033Z,19.34
2019-06-01T22:03:10.992Z,19.43
2019-06-01T22:05:42.224Z,19.44
2019-06-01T22:08:13.387Z,19.54
2019-06-01T22:10:45.215Z,19.38
2019-06-01T22:13:19.314Z,19.39
2019-06-01T22:15:49.351Z,19.38
2019-06-01T22:18:21.609Z,19.47
2019-06-01T22:20:54.114Z,19.38
2019-06-01T22:23:26.114Z,19.32
2019-06-01T22:25:57.278Z,19.27
2019-06-01T22:28:28.690Z,19.34
2019-06-01T22:31:00.337Z,19.28
2019-06-01T22:33:31.472Z,19.14
2019-06-01T22:36:02.625Z,19.21
2019-06-01T22:38:35.050Z,19.01
2019-06-01T22:41:06.352Z,18.99
2019-06-01T22:43:46.176Z,19.13
2019-06-01T22:46:10.250Z,19.13
2019-06-01T22:48:41.489Z,18.99
2019-06-01T22:51:12.631Z,19.01
2019-06-01T22:53:43.878Z,18.99
2019-06-01T22:56:15.154Z,18.91
2019-06-01T22:58:46.581Z,18.91
2019-06-01T23:01:34.488Z,18.91
2019-06-01T23:04:02.396Z,19.01
2019-06-01T23:06:33.601Z,19.11
2019-06-01T23:09:07.708Z,19.04
2019-06-01T23:11:38.858Z,18.88
2019-06-01T23:14:10.010Z,18.83
2019-06-01T23:16:41.230Z,18.83
2019-06-01T23:19:12.380Z,18.83
2019-06-01T23:21:43.510Z,18.80
2019-06-01T23:24:14.672Z,18.74
2019-06-01T23:26:45.896Z,18.59
2019-06-01T23:29:17.027Z,18.66
2019-06-01T23:31:48.123Z,18.67
2019-06-01T23:34:19.253Z,18.55
2019-06-01T23:36:50.497Z,18.55
2019-06-01T23:39:22.687Z,18.56
2019-06-01T23:41:53.909Z,18.57
2019-06-01T23:44:29.332Z,18.73
2019-06-01T23:46:58.095Z,18.71
2019-06-01T23:49:29.309Z,18.40
2019-06-01T23:52:00.412Z,18.51
2019-06-01T23:54:32.424Z,18.55
2019-06-01T23:57:04.224Z,18.54
2019-06-01T23:59:35.330Z,18.55
